createdAt,value
2023-05-25T00:00:03.852Z,12.40
2023-05-25T00:02:35.643Z,12.50
2023-05-25T00:05:04.736Z,12.50
2023-05-25T00:07:33.390Z,12.50
2023-05-25T00:10:02.065Z,12.50
2023-05-25T00:12:30.884Z,12.50
2023-05-25T00:14:59.533Z,12.60
2023-05-25T00:17:32.029Z,12.50
2023-05-25T00:20:08.081Z,12.50
2023-05-25T00:22:36.968Z,12.50
2023-05-25T00:25:06.548Z,12.60
2023-05-25T00:27:35.366Z,12.50
2023-05-25T00:30:04.096Z,12.60
2023-05-25T00:32:32.822Z,12.60
2023-05-25T00:35:03.040Z,12.60
2023-05-25T00:37:31.720Z,12.60
2023-05-25T00:40:00.292Z,12.60
2023-05-25T00:42:30.563Z,12.60
2023-05-25T00:44:59.266Z,12.60
2023-05-25T00:47:28.587Z,12.60
2023-05-25T00:49:57.649Z,12.60
2023-05-25T00:52:28.162Z,12.60
2023-05-25T00:55:00.697Z,12.60
2023-05-25T00:57:34.104Z,12.60
2023-05-25T01:00:07.259Z,12.60
2023-05-25T01:02:36.478Z,12.60
2023-05-25T01:05:10.130Z,12.60
2023-05-25T01:07:44.656Z,12.60
2023-05-25T01:10:16.794Z,12.60
2023-05-25T01:12:47.048Z,12.60
2023-05-25T01:15:15.807Z,12.60
2023-05-25T01:17:44.816Z,12.60
2023-05-25T01:20:13.714Z,12.60
2023-05-25T01:22:47.464Z,12.50
2023-05-25T01:25:21.874Z,12.50
2023-05-25T01:27:55.570Z,12.50
2023-05-25T01:30:27.316Z,12.50
2023-05-25T01:32:56.917Z,12.50
2023-05-25T01:35:26.350Z,12.50
2023-05-25T01:37:56.548Z,12.50
2023-05-25T01:40:25.243Z,12.60
2023-05-25T01:42:53.999Z,12.60
2023-05-25T01:45:22.865Z,12.60
2023-05-25T01:48:10.421Z,12.60
2023-05-25T01:50:51.165Z,12.70
2023-05-25T01:53:24.767Z,12.70
2023-05-25T01:55:59.216Z,12.60
2023-05-25T01:58:34.116Z,12.70
2023-05-25T02:01:03.441Z,12.70
2023-05-25T02:03:32.437Z,12.70
2023-05-25T02:06:01.269Z,12.70
2023-05-25T02:08:31.255Z,12.70
2023-05-25T02:11:03.525Z,12.60
2023-05-25T02:13:32.267Z,12.70
2023-05-25T02:16:01.027Z,12.70
2023-05-25T02:18:29.727Z,12.70
2023-05-25T02:20:58.347Z,12.70
2023-05-25T02:23:27.440Z,12.80
2023-05-25T02:25:57.585Z,12.80
2023-05-25T02:28:26.827Z,12.70
2023-05-25T02:30:56.654Z,12.70
2023-05-25T02:33:25.359Z,12.60
2023-05-25T02:35:54.105Z,12.60
2023-05-25T02:38:22.760Z,12.50
2023-05-25T02:40:52.348Z,12.50
2023-05-25T02:43:24.006Z,12.50
2023-05-25T02:45:52.788Z,12.50
2023-05-25T02:48:22.117Z,12.40
2023-05-25T02:50:50.902Z,12.40
2023-05-25T02:53:19.909Z,12.30
2023-05-25T02:55:49.361Z,12.40
2023-05-25T02:58:21.175Z,12.40
2023-05-25T03:01:18.765Z,12.30
2023-05-25T03:03:54.356Z,12.30
2023-05-25T03:06:26.270Z,12.20
2023-05-25T03:09:01.844Z,12.10
2023-05-25T03:11:30.687Z,12.10
2023-05-25T03:14:00.586Z,12.20
2023-05-25T03:16:36.563Z,12.20
2023-05-25T03:19:06.376Z,12.10
2023-05-25T03:21:38.325Z,12.20
2023-05-25T03:24:07.832Z,12.20
2023-05-25T03:26:36.543Z,12.30
2023-05-25T03:29:07.106Z,12.30
2023-05-25T03:31:37.666Z,12.40
2023-05-25T03:34:07.044Z,12.40
2023-05-25T03:36:39.104Z,12.50
2023-05-25T03:39:10.150Z,12.60
2023-05-25T03:41:39.140Z,12.70
2023-05-25T03:44:07.779Z,12.70
2023-05-25T03:46:38.085Z,12.80
2023-05-25T03:49:06.877Z,12.80
2023-05-25T03:51:36.660Z,12.90
2023-05-25T03:54:05.839Z,13.00
2023-05-25T03:56:34.620Z,13.20
2023-05-25T03:59:03.667Z,13.60
2023-05-25T04:01:32.460Z,13.90
2023-05-25T04:04:02.581Z,14.10
2023-05-25T04:06:31.533Z,14.50
2023-05-25T04:09:01.401Z,14.90
2023-05-25T04:11:30.417Z,15.40
2023-05-25T04:13:59.747Z,15.80
2023-05-25T04:16:31.250Z,16.20
2023-05-25T04:19:02.297Z,16.50
2023-05-25T04:21:31.086Z,16.70
2023-05-25T04:23:59.846Z,16.90
2023-05-25T04:26:28.648Z,16.80
2023-05-25T04:28:59.050Z,17.00
2023-05-25T04:31:36.463Z,17.00
2023-05-25T04:34:26.214Z,17.00
2023-05-25T04:37:08.885Z,17.20
2023-05-25T04:39:38.143Z,17.30
2023-05-25T04:42:07.808Z,17.60
2023-05-25T04:44:37.804Z,17.60
2023-05-25T04:47:08.275Z,17.40
2023-05-25T04:49:39.215Z,17.60
2023-05-25T04:52:10.059Z,17.60
2023-05-25T04:54:40.247Z,17.90
2023-05-25T04:57:10.104Z,18.00
2023-05-25T04:59:38.833Z,18.20
2023-05-25T05:02:08.681Z,18.00
2023-05-25T05:04:40.039Z,18.30
2023-05-25T05:07:09.374Z,18.50
2023-05-25T05:09:38.519Z,18.60
2023-05-25T05:12:10.588Z,18.30
2023-05-25T05:14:43.826Z,18.10
2023-05-25T05:17:13.075Z,18.40
2023-05-25T05:19:43.439Z,18.20
2023-05-25T05:22:15.970Z,18.40
2023-05-25T05:24:45.819Z,18.50
2023-05-25T05:27:20.756Z,18.60
2023-05-25T05:29:55.533Z,18.10
2023-05-25T05:32:24.555Z,18.10
2023-05-25T05:34:54.764Z,18.30
2023-05-25T05:37:42.255Z,17.70
2023-05-25T05:40:11.902Z,17.20
2023-05-25T05:42:43.507Z,16.80
2023-05-25T05:45:13.344Z,16.60
2023-05-25T05:47:41.971Z,16.30
2023-05-25T05:50:12.869Z,16.30
2023-05-25T05:52:42.929Z,16.20
2023-05-25T05:55:12.904Z,16.10
2023-05-25T05:57:43.142Z,16.00
2023-05-25T06:00:13.321Z,16.00
2023-05-25T06:02:45.010Z,16.10
2023-05-25T06:05:21.915Z,16.20
2023-05-25T06:07:51.802Z,16.30
2023-05-25T06:10:22.588Z,16.30
2023-05-25T06:12:51.582Z,16.20
2023-05-25T06:15:20.249Z,16.10
2023-05-25T06:17:51.459Z,16.20
2023-05-25T06:20:21.815Z,16.30
2023-05-25T06:22:50.515Z,16.30
2023-05-25T06:25:19.255Z,16.40
2023-05-25T06:27:48.501Z,16.30
2023-05-25T06:30:17.405Z,16.40
2023-05-25T06:32:46.775Z,16.60
2023-05-25T06:35:19.688Z,16.80
2023-05-25T06:37:51.848Z,16.70
2023-05-25T06:40:21.686Z,16.70
2023-05-25T06:42:50.449Z,16.50
2023-05-25T06:45:40.154Z,16.50
2023-05-25T06:48:08.908Z,16.60
2023-05-25T06:50:37.551Z,16.60
2023-05-25T06:53:07.709Z,16.60
2023-05-25T06:55:36.272Z,16.70
2023-05-25T06:58:05.076Z,16.80
2023-05-25T07:00:33.748Z,17.00
2023-05-25T07:03:02.717Z,17.20
2023-05-25T07:05:31.585Z,17.20
2023-05-25T07:08:00.302Z,17.40
2023-05-25T07:10:30.224Z,17.30
2023-05-25T07:12:58.990Z,17.40
2023-05-25T07:15:27.625Z,17.50
2023-05-25T07:17:57.335Z,17.80
2023-05-25T07:20:27.384Z,17.60
2023-05-25T07:22:56.320Z,17.60
2023-05-25T07:25:24.971Z,17.50
2023-05-25T07:27:56.073Z,17.80
2023-05-25T07:30:24.851Z,17.90
2023-05-25T07:32:53.550Z,18.00
2023-05-25T07:35:22.493Z,18.10
2023-05-25T07:37:58.065Z,18.20
2023-05-25T07:40:27.459Z,18.20
2023-05-25T07:42:57.845Z,18.10
2023-05-25T07:45:26.678Z,18.40
2023-05-25T07:47:55.501Z,18.50
2023-05-25T07:50:24.704Z,18.30
2023-05-25T07:52:53.387Z,18.20
2023-05-25T07:55:22.089Z,18.30
2023-05-25T07:57:51.561Z,18.30
2023-05-25T08:00:22.809Z,18.30
2023-05-25T08:02:51.717Z,18.30
2023-05-25T08:05:20.512Z,18.40
2023-05-25T08:07:49.200Z,18.30
2023-05-25T08:10:17.933Z,18.50
2023-05-25T08:12:49.676Z,18.50
2023-05-25T08:15:21.785Z,18.40
2023-05-25T08:17:51.078Z,18.40
2023-05-25T08:20:19.988Z,18.60
2023-05-25T08:22:48.756Z,18.50
2023-05-25T08:25:17.362Z,18.50
2023-05-25T08:27:46.071Z,18.60
2023-05-25T08:30:14.840Z,18.80
2023-05-25T08:32:45.228Z,18.80
2023-05-25T08:35:14.259Z,18.90
2023-05-25T08:37:43.482Z,19.10
2023-05-25T08:40:17.030Z,19.20
2023-05-25T08:42:46.552Z,19.30
2023-05-25T08:45:30.294Z,19.10
2023-05-25T08:48:09.269Z,18.80
2023-05-25T08:50:41.339Z,18.90
2023-05-25T08:53:12.772Z,19.10
2023-05-25T08:55:44.463Z,18.80
2023-05-25T08:58:18.269Z,18.50
2023-05-25T09:00:55.792Z,18.60
2023-05-25T09:03:26.183Z,18.60
2023-05-25T09:05:57.355Z,19.00
2023-05-25T09:08:27.119Z,19.20
2023-05-25T09:10:57.635Z,19.40
2023-05-25T09:13:26.330Z,19.50
2023-05-25T09:15:55.107Z,19.40
2023-05-25T09:18:25.173Z,19.50
2023-05-25T09:20:55.539Z,19.90
2023-05-25T09:23:24.780Z,19.90
2023-05-25T09:25:54.787Z,20.00
2023-05-25T09:28:27.440Z,20.00
2023-05-25T09:30:57.639Z,20.00
2023-05-25T09:33:27.938Z,19.90
2023-05-25T09:35:57.086Z,19.80
2023-05-25T09:38:26.066Z,20.30
2023-05-25T09:40:55.129Z,20.40
2023-05-25T09:43:39.757Z,20.30
2023-05-25T09:46:12.325Z,20.00
2023-05-25T09:48:43.358Z,20.20
2023-05-25T09:51:13.162Z,20.30
2023-05-25T09:53:42.221Z,20.20
2023-05-25T09:56:12.830Z,19.90
2023-05-25T09:58:42.303Z,19.90
2023-05-25T10:01:10.930Z,20.00
2023-05-25T10:03:59.709Z,20.30
2023-05-25T10:06:33.330Z,20.60
2023-05-25T10:09:02.411Z,20.90
2023-05-25T10:11:31.780Z,20.90
2023-05-25T10:14:06.148Z,20.80
2023-05-25T10:16:36.120Z,20.50
2023-05-25T10:19:11.448Z,20.30
2023-05-25T10:21:42.460Z,20.40
2023-05-25T10:24:18.222Z,20.30
2023-05-25T10:26:51.125Z,20.30
2023-05-25T10:29:21.519Z,20.40
2023-05-25T10:31:50.812Z,20.10
2023-05-25T10:34:22.533Z,20.20
2023-05-25T10:36:53.420Z,20.50
2023-05-25T10:39:24.932Z,20.70
2023-05-25T10:41:54.279Z,21.00
2023-05-25T10:44:23.444Z,21.20
2023-05-25T10:46:52.376Z,20.90
2023-05-25T10:49:35.506Z,20.70
2023-05-25T10:52:04.606Z,20.50
2023-05-25T10:54:36.239Z,20.50
2023-05-25T10:57:12.772Z,20.60
2023-05-25T10:59:45.675Z,20.60
2023-05-25T11:02:16.029Z,20.70
2023-05-25T11:04:49.077Z,20.80
2023-05-25T11:07:19.596Z,21.10
2023-05-25T11:09:59.407Z,21.30
2023-05-25T11:12:28.098Z,21.50
2023-05-25T11:15:15.930Z,21.50
2023-05-25T11:18:00.199Z,21.10
2023-05-25T11:20:31.423Z,20.70
2023-05-25T11:23:00.362Z,20.40
2023-05-25T11:25:40.425Z,20.60
2023-05-25T11:28:11.923Z,21.20
2023-05-25T11:30:43.099Z,21.20
2023-05-25T11:33:11.922Z,20.90
2023-05-25T11:35:45.467Z,20.90
2023-05-25T11:38:15.952Z,21.20
2023-05-25T11:40:44.740Z,21.10
2023-05-25T11:43:14.100Z,20.40
2023-05-25T11:45:42.821Z,20.10
2023-05-25T11:48:14.971Z,20.00
2023-05-25T11:50:45.271Z,19.90
2023-05-25T11:53:15.018Z,19.90
2023-05-25T11:55:55.618Z,19.80
2023-05-25T11:58:35.153Z,20.30
2023-05-25T12:01:18.730Z,20.80
2023-05-25T12:03:48.546Z,21.00
2023-05-25T12:06:29.484Z,21.30
2023-05-25T12:08:58.956Z,21.40
2023-05-25T12:11:32.447Z,21.30
2023-05-25T12:14:02.148Z,21.30
2023-05-25T12:16:32.389Z,21.10
2023-05-25T12:19:01.943Z,21.20
2023-05-25T12:21:33.154Z,21.50
2023-05-25T12:24:02.839Z,21.60
2023-05-25T12:26:31.589Z,21.60
2023-05-25T12:29:01.163Z,21.60
2023-05-25T12:31:31.518Z,21.60
2023-05-25T12:34:11.080Z,21.70
2023-05-25T12:36:46.645Z,21.70
2023-05-25T12:39:16.423Z,21.80
2023-05-25T12:41:51.270Z,21.90
2023-05-25T12:44:25.491Z,22.10
2023-05-25T12:46:56.744Z,21.90
2023-05-25T12:49:31.025Z,22.00
2023-05-25T12:52:03.838Z,22.30
2023-05-25T12:54:50.224Z,22.20
2023-05-25T12:57:19.092Z,22.30
2023-05-25T12:59:49.369Z,22.40
2023-05-25T13:02:18.158Z,22.30
2023-05-25T13:04:46.876Z,22.40
2023-05-25T13:07:17.552Z,22.30
2023-05-25T13:09:46.192Z,22.20
2023-05-25T13:12:14.832Z,22.40
2023-05-25T13:14:43.400Z,22.00
2023-05-25T13:17:12.122Z,22.10
2023-05-25T13:19:41.610Z,22.10
2023-05-25T13:22:10.381Z,21.80
2023-05-25T13:24:40.410Z,21.70
2023-05-25T13:27:09.019Z,21.80
2023-05-25T13:29:37.743Z,21.60
2023-05-25T13:32:07.233Z,21.90
2023-05-25T13:34:36.172Z,22.10
2023-05-25T13:37:05.016Z,22.30
2023-05-25T13:39:33.782Z,22.40
2023-05-25T13:42:03.812Z,22.50
2023-05-25T13:44:33.933Z,22.10
2023-05-25T13:47:02.682Z,22.20
2023-05-25T13:49:31.326Z,22.40
2023-05-25T13:52:00.012Z,22.30
2023-05-25T13:54:28.711Z,22.60
2023-05-25T13:56:57.347Z,22.80
2023-05-25T13:59:27.709Z,22.90
2023-05-25T14:01:56.608Z,22.50
2023-05-25T14:04:26.218Z,22.30
2023-05-25T14:06:55.563Z,22.00
2023-05-25T14:09:24.590Z,22.20
2023-05-25T14:11:53.817Z,22.40
2023-05-25T14:14:31.522Z,22.60
2023-05-25T14:17:03.045Z,22.50
2023-05-25T14:19:32.942Z,22.40
2023-05-25T14:22:12.504Z,22.50
2023-05-25T14:24:42.455Z,22.40
2023-05-25T14:27:11.273Z,22.50
2023-05-25T14:29:39.941Z,22.70
2023-05-25T14:32:09.963Z,22.70
2023-05-25T14:34:38.785Z,22.60
2023-05-25T14:37:07.508Z,22.80
2023-05-25T14:39:36.327Z,22.80
2023-05-25T14:42:05.976Z,22.90
2023-05-25T14:44:34.886Z,22.90
2023-05-25T14:47:04.033Z,23.00
2023-05-25T14:49:34.376Z,22.80
2023-05-25T14:52:03.225Z,22.60
2023-05-25T14:54:31.896Z,22.50
2023-05-25T14:57:01.859Z,22.20
2023-05-25T14:59:30.596Z,22.20
2023-05-25T15:01:59.378Z,22.50
2023-05-25T15:04:30.020Z,22.60
2023-05-25T15:07:00.657Z,22.40
2023-05-25T15:09:29.368Z,22.10
2023-05-25T15:11:58.259Z,22.40
2023-05-25T15:14:27.008Z,22.50
2023-05-25T15:16:56.290Z,22.60
2023-05-25T15:19:24.935Z,22.70
2023-05-25T15:21:53.686Z,22.90
2023-05-25T15:24:23.722Z,23.00
2023-05-25T15:26:52.494Z,23.20
2023-05-25T15:29:21.145Z,23.10
2023-05-25T15:31:53.624Z,23.00
2023-05-25T15:34:22.511Z,22.80
2023-05-25T15:36:51.392Z,22.70
2023-05-25T15:39:20.099Z,22.50
2023-05-25T15:41:50.177Z,22.60
2023-05-25T15:44:19.335Z,22.60
2023-05-25T15:46:48.022Z,22.70
2023-05-25T15:49:16.730Z,22.60
2023-05-25T15:51:45.347Z,22.80
2023-05-25T15:54:14.875Z,22.80
2023-05-25T15:56:43.881Z,22.80
2023-05-25T15:59:13.895Z,22.80
2023-05-25T16:01:42.621Z,22.90
2023-05-25T16:04:11.374Z,22.80
2023-05-25T16:06:40.204Z,22.70
2023-05-25T16:09:08.858Z,22.80
2023-05-25T16:11:37.553Z,23.00
2023-05-25T16:14:06.271Z,22.90
2023-05-25T16:16:36.522Z,23.00
2023-05-25T16:19:05.280Z,22.80
2023-05-25T16:21:37.728Z,22.70
2023-05-25T16:24:07.356Z,22.60
2023-05-25T16:26:36.138Z,22.80
2023-05-25T16:29:04.925Z,22.80
2023-05-25T16:31:35.593Z,22.90
2023-05-25T16:34:04.421Z,22.90
2023-05-25T16:36:33.051Z,22.90
2023-05-25T16:39:01.693Z,22.90
2023-05-25T16:41:30.492Z,23.00
2023-05-25T16:43:59.741Z,23.00
2023-05-25T16:46:28.536Z,22.90
2023-05-25T16:48:58.629Z,23.10
2023-05-25T16:51:27.489Z,23.00
2023-05-25T16:53:56.157Z,23.10
2023-05-25T16:56:26.368Z,23.00
2023-05-25T16:58:55.135Z,22.90
2023-05-25T17:01:23.888Z,22.80
2023-05-25T17:03:52.738Z,22.80
2023-05-25T17:06:22.871Z,22.80
2023-05-25T17:08:52.523Z,22.90
2023-05-25T17:11:26.132Z,23.00
2023-05-25T17:13:54.989Z,22.90
2023-05-25T17:16:23.826Z,22.70
2023-05-25T17:18:52.556Z,22.70
2023-05-25T17:21:22.919Z,22.90
2023-05-25T17:23:51.683Z,23.10
2023-05-25T17:26:20.313Z,22.90
2023-05-25T17:28:48.946Z,23.00
2023-05-25T17:31:17.668Z,23.00
2023-05-25T17:33:46.472Z,22.80
2023-05-25T17:36:15.211Z,22.50
2023-05-25T17:38:45.307Z,22.20
2023-05-25T17:41:14.009Z,22.00
2023-05-25T17:43:42.844Z,21.70
2023-05-25T17:46:11.660Z,21.40
2023-05-25T17:48:40.427Z,21.20
2023-05-25T17:51:09.159Z,21.00
2023-05-25T17:53:37.950Z,20.80
2023-05-25T17:56:08.633Z,20.60
2023-05-25T17:58:38.111Z,20.50
2023-05-25T18:01:06.959Z,20.40
2023-05-25T18:03:35.884Z,20.20
2023-05-25T18:06:05.036Z,20.10
2023-05-25T18:08:33.641Z,20.00
2023-05-25T18:11:02.297Z,19.90
2023-05-25T18:13:32.631Z,19.80
2023-05-25T18:16:01.326Z,19.70
2023-05-25T18:18:30.431Z,19.60
2023-05-25T18:20:59.484Z,19.60
2023-05-25T18:23:28.181Z,19.50
2023-05-25T18:25:56.987Z,19.40
2023-05-25T18:28:25.871Z,19.40
2023-05-25T18:30:56.187Z,19.40
2023-05-25T18:33:25.198Z,19.30
2023-05-25T18:35:54.065Z,19.20
2023-05-25T18:38:22.825Z,19.10
2023-05-25T18:40:51.612Z,19.00
2023-05-25T18:43:20.255Z,19.00
2023-05-25T18:45:49.179Z,19.00
2023-05-25T18:48:19.620Z,18.90
2023-05-25T18:50:48.489Z,18.70
2023-05-25T18:53:17.311Z,18.50
2023-05-25T18:55:46.256Z,18.50
2023-05-25T18:58:15.689Z,18.40
2023-05-25T19:00:44.504Z,18.30
2023-05-25T19:03:13.426Z,18.20
2023-05-25T19:05:44.085Z,18.10
2023-05-25T19:08:12.999Z,17.90
2023-05-25T19:10:42.806Z,17.80
2023-05-25T19:13:11.711Z,17.70
2023-05-25T19:15:40.703Z,17.50
2023-05-25T19:18:09.480Z,17.30
2023-05-25T19:20:38.147Z,17.20
2023-05-25T19:23:08.415Z,17.00
2023-05-25T19:25:37.399Z,17.00
2023-05-25T19:28:06.254Z,16.90
2023-05-25T19:30:35.136Z,16.90
2023-05-25T19:33:03.985Z,16.80
2023-05-25T19:35:32.762Z,16.80
2023-05-25T19:38:02.289Z,16.70
2023-05-25T19:40:33.069Z,16.80
2023-05-25T19:43:01.701Z,16.80
2023-05-25T19:45:30.656Z,16.80
2023-05-25T19:47:59.577Z,16.90
2023-05-25T19:50:30.637Z,16.80
2023-05-25T19:52:59.615Z,16.80
2023-05-25T19:55:28.604Z,16.80
2023-05-25T19:57:58.692Z,16.70
2023-05-25T20:00:27.524Z,16.70
2023-05-25T20:02:56.656Z,16.60
2023-05-25T20:05:25.398Z,16.60
2023-05-25T20:07:55.952Z,16.50
2023-05-25T20:10:25.479Z,16.40
2023-05-25T20:12:54.281Z,16.30
2023-05-25T20:15:24.335Z,16.30
2023-05-25T20:17:53.114Z,16.10
2023-05-25T20:20:21.920Z,16.00
2023-05-25T20:22:50.982Z,15.90
2023-05-25T20:25:19.600Z,15.90
2023-05-25T20:27:48.494Z,15.90
2023-05-25T20:30:17.791Z,15.80
2023-05-25T20:32:47.861Z,15.70
2023-05-25T20:35:19.383Z,15.60
2023-05-25T20:37:48.178Z,15.60
2023-05-25T20:40:16.978Z,15.50
2023-05-25T20:42:45.700Z,15.40
2023-05-25T20:45:14.523Z,15.30
2023-05-25T20:47:43.333Z,15.20
2023-05-25T20:50:13.634Z,15.20
2023-05-25T20:52:42.609Z,15.10
2023-05-25T20:55:11.482Z,15.00
2023-05-25T20:57:40.161Z,14.90
2023-05-25T21:00:10.206Z,14.80
2023-05-25T21:02:39.044Z,14.70
2023-05-25T21:05:08.082Z,14.70
2023-05-25T21:07:38.144Z,14.60
2023-05-25T21:10:07.716Z,14.60
2023-05-25T21:12:36.518Z,14.50
2023-05-25T21:15:05.816Z,14.50
2023-05-25T21:17:34.614Z,14.50
2023-05-25T21:20:03.462Z,14.40
2023-05-25T21:22:32.225Z,14.40
2023-05-25T21:25:02.435Z,14.40
2023-05-25T21:27:31.161Z,14.40
2023-05-25T21:29:59.857Z,14.40
2023-05-25T21:32:28.541Z,14.40
2023-05-25T21:34:57.384Z,14.30
2023-05-25T21:37:26.136Z,14.30
2023-05-25T21:39:54.804Z,14.20
2023-05-25T21:42:24.954Z,14.20
2023-05-25T21:44:53.998Z,14.20
2023-05-25T21:47:22.841Z,14.10
2023-05-25T21:49:51.614Z,14.10
2023-05-25T21:52:20.763Z,14.00
2023-05-25T21:54:49.637Z,13.90
2023-05-25T21:57:18.427Z,13.90
2023-05-25T21:59:48.589Z,13.80
2023-05-25T22:02:17.657Z,13.80
2023-05-25T22:04:46.443Z,13.70
2023-05-25T22:07:15.262Z,13.70
2023-05-25T22:09:44.109Z,13.60
2023-05-25T22:12:13.267Z,13.60
2023-05-25T22:14:42.063Z,13.50
2023-05-25T22:17:12.232Z,13.40
2023-05-25T22:19:43.184Z,13.40
2023-05-25T22:22:13.638Z,13.30
2023-05-25T22:24:42.325Z,13.30
2023-05-25T22:27:11.102Z,13.30
2023-05-25T22:29:39.756Z,13.20
2023-05-25T22:32:08.458Z,13.20
2023-05-25T22:34:38.566Z,13.20
2023-05-25T22:37:07.227Z,13.20
2023-05-25T22:39:35.958Z,13.10
2023-05-25T22:42:04.683Z,13.10
2023-05-25T22:44:33.450Z,13.00
2023-05-25T22:47:02.135Z,13.00
2023-05-25T22:49:30.862Z,12.90
2023-05-25T22:52:01.086Z,12.90
2023-05-25T22:54:29.873Z,12.80
2023-05-25T22:56:58.659Z,12.80
2023-05-25T22:59:27.794Z,12.70
2023-05-25T23:01:56.625Z,12.70
2023-05-25T23:04:25.404Z,12.60
2023-05-25T23:06:54.143Z,12.60
2023-05-25T23:09:24.242Z,12.60
2023-05-25T23:11:52.920Z,12.60
2023-05-25T23:14:21.838Z,12.60
2023-05-25T23:16:50.551Z,12.60
2023-05-25T23:19:19.927Z,12.50
2023-05-25T23:21:48.632Z,12.50
2023-05-25T23:24:17.462Z,12.50
2023-05-25T23:26:47.953Z,12.50
2023-05-25T23:29:16.762Z,12.40
2023-05-25T23:31:45.507Z,12.40
2023-05-25T23:34:14.176Z,12.40
2023-05-25T23:36:42.833Z,12.40
2023-05-25T23:39:11.639Z,12.40
2023-05-25T23:41:40.358Z,12.30
2023-05-25T23:44:10.387Z,12.30
2023-05-25T23:46:39.242Z,12.30
2023-05-25T23:49:07.901Z,12.20
2023-05-25T23:51:36.617Z,12.20
2023-05-25T23:54:06.892Z,12.20
2023-05-25T23:56:35.646Z,12.20
2023-05-25T23:59:04.280Z,12.20
